CA-0441 weather

CLOSED Edmonton / St. Albert
St. Albert, Alberta, Canada

Public forecast

Using degrees Celsius for public forecast. Weather courtesy of forecast.io.

Closest aviation weather report (METAR) to Edmonton / St. Albert

Closest report is Edmonton / Villeneuve Airport, 5.9 nm (10.9 km) WSW. Retrieved 2020/08/05 16:00 UTC (31 minutes ago):

CZVL 051600Z AUTO 08005KT 030V120 9SM CLR 21/15 A2991 RMK SLP128 DENSITY ALT 3400FT

Closest aviation forecast (TAF) to Edmonton / St. Albert

Closest forecast is Edmonton / Villeneuve Airport, 5.9 nm (10.9 km) WSW. Retrieved 2020/08/05 12:00 UTC (5 hours ago):

TAF CZVL 051138Z 0512/0524 VRB03KT P6SM SKC PROB30 0512/0513 1/2SM FG FM052000 18005KT P6SM FEW060 RMK FCST BASED ON AUTO OBS NXT FCST BY 051800Z